createdAt,value
2018-09-25T01:35:57.508Z,0.00
2018-09-25T02:05:13.719Z,0.00
2018-09-25T03:14:35.562Z,0.00
2018-09-25T03:15:35.556Z,0.00
2018-09-25T04:00:31.967Z,0.00
2018-09-25T04:01:31.940Z,0.00
2018-09-25T04:02:31.922Z,0.00
2018-09-25T04:03:31.913Z,0.00
2018-09-25T04:04:32.327Z,0.00
2018-09-25T04:05:32.237Z,0.00
2018-09-25T04:06:32.263Z,0.00
2018-09-25T04:07:31.860Z,0.00
2018-09-25T04:08:32.518Z,0.00
2018-09-25T04:09:31.841Z,0.00
2018-09-25T04:10:31.826Z,0.00
2018-09-25T04:11:31.829Z,0.00
2018-09-25T04:12:31.807Z,0.00
2018-09-25T04:13:31.796Z,0.00
2018-09-25T04:14:31.781Z,0.00
2018-09-25T04:15:31.771Z,0.00
2018-09-25T04:16:31.774Z,0.00
2018-09-25T04:17:31.747Z,0.00
2018-09-25T04:18:31.870Z,0.00
2018-09-25T04:19:31.768Z,0.00
2018-09-25T04:20:31.717Z,0.00
2018-09-25T04:21:31.713Z,0.00
2018-09-25T04:22:31.697Z,0.00
2018-09-25T04:23:31.684Z,0.00
2018-09-25T04:24:31.995Z,0.00
2018-09-25T04:25:31.659Z,0.00
2018-09-25T04:26:32.049Z,0.00
2018-09-25T04:27:31.637Z,0.00
2018-09-25T04:28:31.990Z,0.00
2018-09-25T04:29:31.618Z,0.00
2018-09-25T04:30:31.603Z,0.00
2018-09-25T04:31:31.604Z,0.00
2018-09-25T04:32:31.814Z,0.00
2018-09-25T04:33:31.569Z,0.00
2018-09-25T04:34:31.557Z,0.00
2018-09-25T04:35:31.546Z,0.00
2018-09-25T04:36:31.543Z,0.00
2018-09-25T04:37:31.625Z,0.00
2018-09-25T04:38:31.513Z,0.00
2018-09-25T04:39:31.660Z,0.00
2018-09-25T04:40:32.275Z,0.00
2018-09-25T04:41:31.490Z,0.00
2018-09-25T04:42:31.472Z,0.00
2018-09-25T04:43:31.456Z,0.00
2018-09-25T04:44:31.916Z,0.00
2018-09-25T04:45:31.433Z,0.00
2018-09-25T04:46:31.433Z,4.00
2018-09-25T04:47:31.410Z,4.00
2018-09-25T04:48:31.394Z,8.00
2018-09-25T04:49:31.388Z,4.00
2018-09-25T04:50:31.376Z,8.00
2018-09-25T04:51:31.377Z,0.00
2018-09-25T04:52:31.348Z,8.00
2018-09-25T04:53:31.413Z,4.00
2018-09-25T04:54:31.335Z,8.00
2018-09-25T04:55:31.318Z,0.00
2018-09-25T04:56:31.315Z,8.00
2018-09-25T04:57:31.297Z,8.00
2018-09-25T04:58:31.315Z,12.00
2018-09-25T04:59:31.448Z,4.00
2018-09-25T05:00:31.566Z,16.00
2018-09-25T05:01:31.334Z,12.00
2018-09-25T05:02:31.240Z,16.00
2018-09-25T05:03:31.223Z,16.00
2018-09-25T05:04:31.216Z,16.00
2018-09-25T05:05:31.491Z,20.00
2018-09-25T05:06:31.224Z,28.00
2018-09-25T05:07:31.178Z,28.00
2018-09-25T05:08:31.169Z,32.00
2018-09-25T05:09:31.155Z,40.00
2018-09-25T05:10:31.148Z,40.00
2018-09-25T05:11:31.146Z,48.00
2018-09-25T05:12:31.207Z,44.00
2018-09-25T05:13:31.153Z,48.00
2018-09-25T05:14:31.103Z,56.00
2018-09-25T05:15:31.092Z,60.00
2018-09-25T05:16:31.292Z,68.00
2018-09-25T05:17:31.069Z,80.00
2018-09-25T05:18:31.261Z,84.00
2018-09-25T05:19:31.049Z,84.00
2018-09-25T05:20:31.044Z,80.00
2018-09-25T05:21:31.170Z,80.00
2018-09-25T05:22:31.007Z,84.00
2018-09-25T05:23:31.042Z,84.00
2018-09-25T05:24:30.989Z,92.00
2018-09-25T05:25:30.977Z,96.00
2018-09-25T05:26:30.980Z,96.00
2018-09-25T05:27:30.958Z,100.00
2018-09-25T05:28:30.939Z,112.00
2018-09-25T05:29:30.932Z,116.00
2018-09-25T05:30:30.920Z,112.00
2018-09-25T05:31:31.159Z,116.00
2018-09-25T05:32:30.897Z,120.00
2018-09-25T05:33:30.891Z,128.00
2018-09-25T05:34:30.996Z,124.00
2018-09-25T05:35:31.123Z,136.00
2018-09-25T05:36:31.053Z,136.00
2018-09-25T05:37:31.290Z,144.00
2018-09-25T05:38:30.835Z,144.00
2018-09-25T05:39:30.821Z,152.00
2018-09-25T05:40:30.963Z,148.00
2018-09-25T05:41:30.847Z,160.00
2018-09-25T05:42:31.200Z,176.00
2018-09-25T05:43:30.772Z,168.00
2018-09-25T05:44:30.766Z,168.00
2018-09-25T05:45:30.762Z,188.00
2018-09-25T05:46:30.743Z,188.00
2018-09-25T05:47:31.237Z,192.00
2018-09-25T05:48:31.149Z,200.00
2018-09-25T05:49:30.708Z,204.00
2018-09-25T05:50:30.864Z,196.00
2018-09-25T05:51:30.681Z,204.00
2018-09-25T05:52:30.683Z,208.00
2018-09-25T05:53:30.664Z,208.00
2018-09-25T05:54:30.652Z,216.00
2018-09-25T05:55:30.833Z,240.00
2018-09-25T05:56:30.684Z,248.00
2018-09-25T05:57:30.626Z,232.00
2018-09-25T05:58:30.606Z,244.00
2018-09-25T05:59:30.591Z,264.00
2018-09-25T06:00:30.583Z,256.00
2018-09-25T06:01:30.845Z,272.00
2018-09-25T06:02:30.575Z,328.00
2018-09-25T06:03:30.549Z,368.00
2018-09-25T06:04:30.684Z,388.00
2018-09-25T06:05:30.529Z,400.00
2018-09-25T06:06:30.515Z,404.00
2018-09-25T06:07:30.524Z,432.00
2018-09-25T06:08:30.492Z,464.00
2018-09-25T06:09:30.532Z,460.00
2018-09-25T06:10:30.470Z,536.00
2018-09-25T06:11:30.464Z,500.00
2018-09-25T06:12:30.456Z,540.00
2018-09-25T06:13:30.436Z,640.00
2018-09-25T06:14:30.425Z,552.00
2018-09-25T06:15:30.413Z,540.00
2018-09-25T06:16:30.399Z,604.00
2018-09-25T06:17:30.404Z,456.00
2018-09-25T06:18:30.380Z,512.00
2018-09-25T06:19:30.368Z,468.00
2018-09-25T06:20:30.356Z,356.00
2018-09-25T06:21:30.345Z,456.00
2018-09-25T06:22:30.345Z,384.00
2018-09-25T06:23:30.327Z,380.00
2018-09-25T06:24:30.311Z,452.00
2018-09-25T06:25:30.300Z,516.00
2018-09-25T06:26:30.285Z,488.00
2018-09-25T06:27:30.284Z,516.00
2018-09-25T06:28:30.266Z,456.00
2018-09-25T06:29:30.255Z,448.00
2018-09-25T06:30:30.244Z,484.00
2018-09-25T06:31:30.232Z,584.00
2018-09-25T06:32:30.232Z,580.00
2018-09-25T06:33:30.210Z,584.00
2018-09-25T06:34:30.249Z,580.00
2018-09-25T06:35:30.187Z,520.00
2018-09-25T06:36:30.163Z,644.00
2018-09-25T06:37:30.176Z,540.00
2018-09-25T06:38:30.163Z,732.00
2018-09-25T06:39:30.143Z,952.00
2018-09-25T06:40:30.160Z,1012.00
2018-09-25T06:41:30.114Z,1044.00
2018-09-25T06:42:30.119Z,1028.00
2018-09-25T06:43:30.096Z,1124.00
2018-09-25T06:44:30.083Z,1236.00
2018-09-25T06:45:30.073Z,1248.00
2018-09-25T06:46:30.061Z,1208.00
2018-09-25T06:47:30.438Z,1144.00
2018-09-25T06:48:30.834Z,1204.00
2018-09-25T06:49:30.028Z,1312.00
2018-09-25T06:50:30.017Z,1292.00
2018-09-25T06:51:30.216Z,1288.00
2018-09-25T06:52:30.335Z,1352.00
2018-09-25T06:53:29.981Z,1528.00
2018-09-25T06:54:29.970Z,1720.00
2018-09-25T06:55:29.959Z,1756.00
2018-09-25T06:56:29.948Z,1728.00
2018-09-25T06:57:29.940Z,1752.00
2018-09-25T06:58:29.999Z,1916.00
2018-09-25T06:59:29.912Z,1944.00
2018-09-25T07:00:30.183Z,2108.00
2018-09-25T07:01:29.890Z,1992.00
2018-09-25T07:02:29.891Z,1828.00
2018-09-25T07:03:29.873Z,1968.00
2018-09-25T07:04:29.852Z,1908.00
2018-09-25T07:05:30.066Z,1868.00
2018-09-25T07:06:29.847Z,1904.00
2018-09-25T07:07:29.833Z,1660.00
2018-09-25T07:08:30.041Z,1692.00
2018-09-25T07:09:29.799Z,1788.00
2018-09-25T07:10:29.882Z,1840.00
2018-09-25T07:11:29.773Z,1736.00
2018-09-25T07:12:29.776Z,1600.00
2018-09-25T07:13:29.758Z,1640.00
2018-09-25T07:14:29.964Z,1776.00
2018-09-25T07:15:29.734Z,1784.00
2018-09-25T07:16:29.724Z,1856.00
2018-09-25T07:17:30.300Z,2000.00
2018-09-25T07:18:29.701Z,2272.00
2018-09-25T07:19:29.705Z,2892.00
2018-09-25T07:20:29.674Z,3500.00
2018-09-25T07:21:29.663Z,3684.00
2018-09-25T07:22:29.664Z,3736.00
2018-09-25T07:23:29.640Z,3856.00
2018-09-25T07:24:29.648Z,3892.00
2018-09-25T07:25:29.618Z,3952.00
2018-09-25T07:26:29.602Z,4036.00
2018-09-25T07:27:29.610Z,4096.00
2018-09-25T07:28:29.572Z,4120.00
2018-09-25T07:29:29.572Z,4156.00
2018-09-25T07:30:29.565Z,4228.00
2018-09-25T07:31:30.755Z,4292.00
2018-09-25T07:32:29.550Z,4356.00
2018-09-25T07:33:30.364Z,4412.00
2018-09-25T07:34:29.561Z,4420.00
2018-09-25T07:35:29.503Z,4484.00
2018-09-25T07:36:29.493Z,4540.00
2018-09-25T07:37:29.548Z,4592.00
2018-09-25T07:38:29.472Z,4620.00
2018-09-25T07:39:29.460Z,4688.00
2018-09-25T07:40:29.447Z,4660.00
2018-09-25T07:41:29.434Z,4648.00
2018-09-25T07:42:29.428Z,4736.00
2018-09-25T07:43:29.425Z,4760.00
2018-09-25T07:44:29.397Z,4828.00
2018-09-25T07:45:29.392Z,4912.00
2018-09-25T07:46:29.384Z,4396.00
2018-09-25T07:47:29.368Z,4948.00
2018-09-25T07:48:29.368Z,4980.00
2018-09-25T07:49:29.345Z,5064.00
2018-09-25T07:50:29.338Z,5060.00
2018-09-25T07:51:29.322Z,5140.00
2018-09-25T07:52:29.313Z,5252.00
2018-09-25T07:53:29.312Z,5336.00
2018-09-25T07:54:29.288Z,6552.00
2018-09-25T07:55:29.281Z,10708.00
2018-09-25T07:56:29.262Z,9040.00
2018-09-25T07:57:29.252Z,7492.00
2018-09-25T07:58:29.259Z,14336.00
2018-09-25T07:59:29.232Z,23840.00
2018-09-25T08:00:29.227Z,27104.00
2018-09-25T08:01:29.213Z,24864.00
2018-09-25T08:02:29.198Z,19008.00
2018-09-25T08:03:29.233Z,9548.00
2018-09-25T08:04:29.177Z,6296.00
2018-09-25T08:05:29.171Z,6092.00
2018-09-25T08:06:29.157Z,6132.00
2018-09-25T08:07:29.143Z,6132.00
2018-09-25T08:08:29.142Z,6156.00
2018-09-25T08:09:29.124Z,6176.00
2018-09-25T08:10:29.112Z,6308.00
2018-09-25T08:11:29.097Z,6416.00
2018-09-25T08:12:29.069Z,6500.00
2018-09-25T08:13:29.082Z,6812.00
2018-09-25T08:14:29.075Z,9068.00
2018-09-25T08:15:29.083Z,15648.00
2018-09-25T08:16:29.041Z,23680.00
2018-09-25T08:17:29.020Z,30528.00
2018-09-25T08:18:29.026Z,32576.00
2018-09-25T08:19:28.996Z,33568.00
2018-09-25T08:20:28.991Z,33984.00
2018-09-25T08:21:28.981Z,35168.00
2018-09-25T08:22:28.968Z,35968.00
2018-09-25T08:23:28.969Z,37248.00
2018-09-25T08:24:31.436Z,39136.00
2018-09-25T08:25:28.937Z,40128.00
2018-09-25T08:26:28.947Z,40832.00
2018-09-25T08:27:28.900Z,42048.00
2018-09-25T08:28:28.916Z,43968.00
2018-09-25T08:29:28.892Z,49152.00
2018-09-25T08:30:28.883Z,54368.00
2018-09-25T08:31:28.871Z,56896.00
2018-09-25T08:32:28.874Z,56416.00
2018-09-25T08:33:28.873Z,53792.00
2018-09-25T08:34:28.837Z,51776.00
2018-09-25T08:35:28.827Z,51520.00
2018-09-25T08:36:28.814Z,55136.00
2018-09-25T08:37:28.803Z,53280.00
2018-09-25T08:38:28.860Z,32416.00
2018-09-25T08:39:29.024Z,22848.00
2018-09-25T08:40:28.765Z,38752.00
2018-09-25T08:41:28.759Z,57216.00
2018-09-25T08:42:28.807Z,44896.00
2018-09-25T08:43:28.743Z,29184.00
2018-09-25T08:44:28.724Z,23552.00
2018-09-25T08:45:29.423Z,24192.00
2018-09-25T08:46:28.697Z,19808.00
2018-09-25T08:47:28.690Z,10404.00
2018-09-25T08:48:28.691Z,7620.00
2018-09-25T08:49:28.668Z,7516.00
2018-09-25T08:50:28.700Z,6948.00
2018-09-25T08:51:28.634Z,6768.00
2018-09-25T08:52:28.672Z,6972.00
2018-09-25T08:53:28.674Z,7144.00
2018-09-25T08:54:28.618Z,6904.00
2018-09-25T08:55:28.604Z,4208.00
2018-09-25T08:56:28.584Z,6168.00
2018-09-25T08:57:28.581Z,6144.00
2018-09-25T08:58:28.583Z,6060.00
2018-09-25T08:59:28.564Z,4780.00
2018-09-25T09:00:28.566Z,6496.00
2018-09-25T09:01:28.536Z,4920.00
2018-09-25T09:02:28.524Z,3452.00
2018-09-25T09:03:28.513Z,6408.00
2018-09-25T09:04:28.502Z,6464.00
2018-09-25T09:05:28.490Z,6288.00
2018-09-25T09:06:28.480Z,5252.00
2018-09-25T09:07:28.469Z,2496.00
2018-09-25T09:08:28.600Z,6448.00
2018-09-25T09:09:28.445Z,2536.00
2018-09-25T09:10:28.437Z,1640.00
2018-09-25T09:11:28.477Z,1616.00
2018-09-25T09:12:29.030Z,1976.00
2018-09-25T09:13:29.888Z,1908.00
2018-09-25T09:14:28.385Z,2132.00
2018-09-25T09:15:28.424Z,1872.00
2018-09-25T09:16:29.086Z,1556.00
2018-09-25T09:17:28.980Z,1148.00
2018-09-25T09:18:28.357Z,1124.00
2018-09-25T09:19:28.443Z,1380.00
2018-09-25T09:20:28.318Z,1712.00
2018-09-25T09:21:28.317Z,1960.00
2018-09-25T09:22:28.304Z,1984.00
2018-09-25T09:23:28.300Z,5412.00
2018-09-25T09:24:28.281Z,1200.00
2018-09-25T09:25:28.268Z,1164.00
2018-09-25T09:26:28.266Z,1104.00
2018-09-25T09:27:30.519Z,1036.00
2018-09-25T09:28:28.533Z,1048.00
2018-09-25T09:29:28.489Z,876.00
2018-09-25T09:30:28.218Z,816.00
2018-09-25T09:31:28.201Z,860.00
2018-09-25T09:32:28.229Z,1208.00
2018-09-25T09:33:28.192Z,1432.00
2018-09-25T09:34:28.167Z,2388.00
2018-09-25T09:35:28.567Z,2252.00
2018-09-25T09:36:28.141Z,2284.00
2018-09-25T09:37:29.483Z,2196.00
2018-09-25T09:38:28.134Z,1896.00
2018-09-25T09:39:28.112Z,1968.00
2018-09-25T09:40:28.100Z,1892.00
2018-09-25T09:41:28.118Z,1896.00
2018-09-25T09:42:28.077Z,1864.00
2018-09-25T09:43:28.102Z,2176.00
2018-09-25T09:44:28.060Z,2196.00
2018-09-25T09:45:28.048Z,2068.00
2018-09-25T09:46:28.036Z,2456.00
2018-09-25T09:47:28.025Z,2592.00
2018-09-25T09:48:29.492Z,2536.00
2018-09-25T09:49:28.022Z,1808.00
2018-09-25T09:50:28.068Z,1492.00
2018-09-25T09:51:27.988Z,1784.00
2018-09-25T09:52:27.968Z,1932.00
2018-09-25T09:53:28.282Z,2072.00
2018-09-25T09:54:28.008Z,1952.00
2018-09-25T09:55:28.484Z,1388.00
2018-09-25T09:56:28.000Z,1488.00
2018-09-25T09:57:27.913Z,1156.00
2018-09-25T09:58:27.901Z,1260.00
2018-09-25T09:59:27.894Z,1272.00
2018-09-25T10:00:27.878Z,1456.00
2018-09-25T10:01:27.868Z,2124.00
2018-09-25T10:02:27.851Z,2168.00
2018-09-25T10:03:28.492Z,2060.00
2018-09-25T10:04:27.932Z,1972.00
2018-09-25T10:05:28.256Z,2320.00
2018-09-25T10:06:28.317Z,2604.00
2018-09-25T10:07:28.436Z,2292.00
2018-09-25T10:08:27.780Z,2320.00
2018-09-25T10:09:28.805Z,1712.00
2018-09-25T10:10:27.760Z,1692.00
2018-09-25T10:11:28.519Z,1488.00
2018-09-25T10:12:27.747Z,1140.00
2018-09-25T10:13:27.727Z,856.00
2018-09-25T10:14:28.199Z,660.00
2018-09-25T10:15:27.704Z,656.00
2018-09-25T10:16:28.490Z,668.00
2018-09-25T10:17:28.200Z,592.00
2018-09-25T10:18:27.670Z,600.00
2018-09-25T10:19:27.671Z,716.00
2018-09-25T10:20:27.640Z,852.00
2018-09-25T10:21:28.497Z,1084.00
2018-09-25T10:22:27.619Z,1456.00
2018-09-25T10:23:27.610Z,1268.00
2018-09-25T10:24:27.608Z,1116.00
2018-09-25T10:25:27.587Z,1148.00
2018-09-25T10:26:27.580Z,1196.00
2018-09-25T10:27:27.636Z,1196.00
2018-09-25T10:28:27.556Z,1308.00
2018-09-25T10:29:28.836Z,1324.00
2018-09-25T10:30:27.531Z,1372.00
2018-09-25T10:31:27.520Z,1384.00
2018-09-25T10:32:27.505Z,1464.00
2018-09-25T10:33:27.493Z,1660.00
2018-09-25T10:34:27.495Z,1508.00
2018-09-25T10:35:27.470Z,1728.00
2018-09-25T10:36:27.546Z,1660.00
2018-09-25T10:37:27.452Z,1516.00
2018-09-25T10:38:28.028Z,1100.00
2018-09-25T10:39:27.432Z,1076.00
2018-09-25T10:40:27.812Z,1100.00
2018-09-25T10:41:27.401Z,1108.00
2018-09-25T10:42:27.590Z,968.00
2018-09-25T10:43:27.385Z,1008.00
2018-09-25T10:44:27.377Z,1072.00
2018-09-25T10:45:27.349Z,1276.00
2018-09-25T10:46:27.341Z,1460.00
2018-09-25T10:47:27.330Z,1776.00
2018-09-25T10:48:27.316Z,1440.00
2018-09-25T10:49:27.321Z,1268.00
2018-09-25T10:50:27.294Z,1520.00
2018-09-25T10:51:28.637Z,1668.00
2018-09-25T10:52:27.273Z,1932.00
2018-09-25T10:53:27.265Z,2068.00
2018-09-25T10:54:27.260Z,1952.00
2018-09-25T10:55:27.322Z,1772.00
2018-09-25T10:56:28.009Z,1580.00
2018-09-25T10:57:27.218Z,1356.00
2018-09-25T10:58:27.209Z,1268.00
2018-09-25T10:59:27.204Z,1244.00
2018-09-25T11:00:27.177Z,1260.00
2018-09-25T11:01:27.168Z,1224.00
2018-09-25T11:02:27.158Z,1180.00
2018-09-25T11:03:27.147Z,1180.00
2018-09-25T11:04:27.810Z,864.00
2018-09-25T11:05:27.538Z,872.00
2018-09-25T11:06:27.114Z,828.00
2018-09-25T11:07:27.251Z,772.00
2018-09-25T11:08:27.288Z,772.00
2018-09-25T11:09:27.107Z,668.00
2018-09-25T11:10:27.068Z,608.00
2018-09-25T11:11:27.257Z,560.00
2018-09-25T11:12:27.041Z,564.00
2018-09-25T11:13:27.027Z,600.00
2018-09-25T11:14:27.031Z,752.00
2018-09-25T11:15:27.008Z,1192.00
2018-09-25T11:16:26.996Z,1268.00
2018-09-25T11:17:26.981Z,1276.00
2018-09-25T11:18:26.974Z,1260.00
2018-09-25T11:19:26.989Z,1216.00
2018-09-25T11:20:26.952Z,1308.00
2018-09-25T11:21:26.944Z,1536.00
2018-09-25T11:22:26.928Z,1516.00
2018-09-25T11:23:26.916Z,1476.00
2018-09-25T11:24:26.922Z,1420.00
2018-09-25T11:25:26.937Z,1300.00
2018-09-25T11:26:26.892Z,852.00
2018-09-25T11:27:26.865Z,852.00
2018-09-25T11:28:26.858Z,848.00
2018-09-25T11:29:26.854Z,808.00
2018-09-25T11:30:26.932Z,872.00
2018-09-25T11:31:26.847Z,912.00
2018-09-25T11:32:26.866Z,1300.00
2018-09-25T11:33:26.802Z,1500.00
2018-09-25T11:34:26.798Z,1728.00
2018-09-25T11:35:26.889Z,1540.00
2018-09-25T11:36:27.234Z,1448.00
2018-09-25T11:37:26.750Z,1408.00
2018-09-25T11:38:26.740Z,1236.00
2018-09-25T11:39:26.754Z,1140.00
2018-09-25T11:40:26.718Z,972.00
2018-09-25T11:41:26.793Z,844.00
2018-09-25T11:42:26.688Z,1136.00
2018-09-25T11:43:26.684Z,1196.00
2018-09-25T11:44:26.724Z,1204.00
2018-09-25T11:45:26.678Z,1040.00
2018-09-25T11:46:26.650Z,924.00
2018-09-25T11:47:26.634Z,960.00
2018-09-25T11:48:26.624Z,1028.00
2018-09-25T11:49:26.612Z,1164.00
2018-09-25T11:50:26.621Z,1108.00
2018-09-25T11:51:27.391Z,1152.00
2018-09-25T11:52:26.773Z,1108.00
2018-09-25T11:53:26.563Z,1056.00
2018-09-25T11:54:26.556Z,1112.00
2018-09-25T11:55:26.556Z,1196.00
2018-09-25T11:56:26.720Z,1256.00
2018-09-25T11:57:26.518Z,1456.00
2018-09-25T11:58:26.559Z,1440.00
2018-09-25T11:59:26.560Z,1484.00
2018-09-25T12:00:26.500Z,1412.00
2018-09-25T12:01:26.481Z,1436.00
2018-09-25T12:02:26.859Z,1444.00
2018-09-25T12:03:26.454Z,1484.00
2018-09-25T12:04:26.492Z,1468.00
2018-09-25T12:05:26.441Z,1380.00
2018-09-25T12:06:26.416Z,1232.00
2018-09-25T12:07:26.597Z,1256.00
2018-09-25T12:08:26.874Z,1208.00
2018-09-25T12:09:26.379Z,1316.00
2018-09-25T12:10:26.632Z,1180.00
2018-09-25T12:11:26.361Z,1112.00
2018-09-25T12:12:26.348Z,1096.00
2018-09-25T12:13:26.346Z,1172.00
2018-09-25T12:14:26.322Z,1032.00
2018-09-25T12:15:27.665Z,984.00
2018-09-25T12:16:26.304Z,960.00
2018-09-25T12:17:26.315Z,956.00
2018-09-25T12:18:26.839Z,1000.00
2018-09-25T12:19:26.269Z,1080.00
2018-09-25T12:20:26.266Z,1152.00
2018-09-25T12:21:26.242Z,1240.00
2018-09-25T12:22:26.236Z,1056.00
2018-09-25T12:23:27.850Z,1068.00
2018-09-25T12:24:26.646Z,1060.00
2018-09-25T12:25:26.214Z,1184.00
2018-09-25T12:26:26.175Z,1312.00
2018-09-25T12:27:26.187Z,1504.00
2018-09-25T12:28:26.165Z,1572.00
2018-09-25T12:29:26.320Z,1448.00
2018-09-25T12:30:26.154Z,1444.00
2018-09-25T12:31:26.130Z,1532.00
2018-09-25T12:32:26.147Z,1696.00
2018-09-25T12:33:26.109Z,1608.00
2018-09-25T12:34:26.099Z,1420.00
2018-09-25T12:35:26.094Z,1136.00
2018-09-25T12:36:26.070Z,900.00
2018-09-25T12:37:26.058Z,796.00
2018-09-25T12:38:26.057Z,772.00
2018-09-25T12:39:26.041Z,728.00
2018-09-25T12:40:26.041Z,704.00
2018-09-25T12:41:26.014Z,708.00
2018-09-25T12:42:26.026Z,764.00
2018-09-25T12:43:25.980Z,932.00
2018-09-25T12:44:26.588Z,996.00
2018-09-25T12:45:25.984Z,1088.00
2018-09-25T12:46:25.995Z,1124.00
2018-09-25T12:47:26.024Z,1116.00
2018-09-25T12:48:26.338Z,1168.00
2018-09-25T12:49:26.613Z,1192.00
2018-09-25T12:50:25.988Z,1292.00
2018-09-25T12:51:25.910Z,1432.00
2018-09-25T12:52:26.159Z,1532.00
2018-09-25T12:53:25.879Z,1676.00
2018-09-25T12:54:26.906Z,1612.00
2018-09-25T12:55:25.859Z,1616.00
2018-09-25T12:56:25.847Z,1528.00
2018-09-25T12:57:26.085Z,1396.00
2018-09-25T12:58:25.821Z,1248.00
2018-09-25T12:59:25.811Z,1092.00
2018-09-25T13:00:25.814Z,960.00
2018-09-25T13:01:25.784Z,896.00
2018-09-25T13:02:25.779Z,820.00
2018-09-25T13:03:26.418Z,772.00
2018-09-25T13:04:25.873Z,772.00
2018-09-25T13:05:25.754Z,792.00
2018-09-25T13:06:26.057Z,848.00
2018-09-25T13:07:25.720Z,924.00
2018-09-25T13:08:25.709Z,952.00
2018-09-25T13:09:25.696Z,940.00
2018-09-25T13:10:25.697Z,840.00
2018-09-25T13:11:27.455Z,776.00
2018-09-25T13:12:26.089Z,744.00
2018-09-25T13:13:26.281Z,644.00
2018-09-25T13:14:25.636Z,564.00
2018-09-25T13:15:25.632Z,508.00
2018-09-25T13:16:26.442Z,480.00
2018-09-25T13:17:25.911Z,472.00
2018-09-25T13:18:25.597Z,452.00
2018-09-25T13:19:25.585Z,432.00
2018-09-25T13:20:26.180Z,420.00
2018-09-25T13:21:25.561Z,388.00
2018-09-25T13:22:25.565Z,372.00
2018-09-25T13:23:25.888Z,372.00
2018-09-25T13:24:25.524Z,396.00
2018-09-25T13:25:25.525Z,384.00
2018-09-25T13:26:25.501Z,396.00
2018-09-25T13:27:26.673Z,424.00
2018-09-25T13:28:25.482Z,424.00
2018-09-25T13:29:25.464Z,424.00
2018-09-25T13:30:25.468Z,424.00
2018-09-25T13:31:25.473Z,420.00
2018-09-25T13:32:25.433Z,416.00
2018-09-25T13:33:25.503Z,436.00
2018-09-25T13:34:27.013Z,448.00
2018-09-25T13:35:25.404Z,460.00
2018-09-25T13:36:25.384Z,448.00
2018-09-25T13:37:25.372Z,484.00
2018-09-25T13:38:25.368Z,500.00
2018-09-25T13:39:26.679Z,528.00
2018-09-25T13:40:25.351Z,572.00
2018-09-25T13:41:25.333Z,624.00
2018-09-25T13:42:25.320Z,668.00
2018-09-25T13:43:25.310Z,708.00
2018-09-25T13:44:25.294Z,764.00
2018-09-25T13:45:25.295Z,796.00
2018-09-25T13:46:25.272Z,880.00
2018-09-25T13:47:25.260Z,956.00
2018-09-25T13:48:25.286Z,1052.00
2018-09-25T13:49:27.159Z,1152.00
2018-09-25T13:50:26.247Z,1196.00
2018-09-25T13:51:25.215Z,1216.00
2018-09-25T13:52:25.205Z,1292.00
2018-09-25T13:53:25.189Z,1228.00
2018-09-25T13:54:25.178Z,1168.00
2018-09-25T13:55:25.203Z,1040.00
2018-09-25T13:56:25.167Z,976.00
2018-09-25T13:57:25.883Z,968.00
2018-09-25T13:58:25.783Z,1004.00
2018-09-25T13:59:25.128Z,952.00
2018-09-25T14:00:25.117Z,888.00
2018-09-25T14:01:25.111Z,912.00
2018-09-25T14:02:25.088Z,904.00
2018-09-25T14:03:25.148Z,868.00
2018-09-25T14:04:25.064Z,796.00
2018-09-25T14:05:25.041Z,756.00
2018-09-25T14:06:25.059Z,720.00
2018-09-25T14:07:25.034Z,664.00
2018-09-25T14:08:25.024Z,584.00
2018-09-25T14:09:26.733Z,548.00
2018-09-25T14:10:24.996Z,544.00
2018-09-25T14:11:25.001Z,560.00
2018-09-25T14:12:24.970Z,552.00
2018-09-25T14:13:24.959Z,552.00
2018-09-25T14:14:24.952Z,556.00
2018-09-25T14:15:24.939Z,588.00
2018-09-25T14:16:24.940Z,628.00
2018-09-25T14:17:24.917Z,640.00
2018-09-25T14:18:24.908Z,700.00
2018-09-25T14:19:24.895Z,784.00
2018-09-25T14:20:24.900Z,804.00
2018-09-25T14:21:24.885Z,800.00
2018-09-25T14:22:24.868Z,812.00
2018-09-25T14:23:24.851Z,852.00
2018-09-25T14:24:25.687Z,884.00
2018-09-25T14:25:24.826Z,884.00
2018-09-25T14:26:24.828Z,856.00
2018-09-25T14:27:24.805Z,764.00
2018-09-25T14:28:24.796Z,716.00
2018-09-25T14:29:24.782Z,676.00
2018-09-25T14:30:24.773Z,640.00
2018-09-25T14:31:24.776Z,608.00
2018-09-25T14:32:24.792Z,592.00
2018-09-25T14:33:24.736Z,572.00
2018-09-25T14:34:24.746Z,544.00
2018-09-25T14:35:24.710Z,512.00
2018-09-25T14:36:24.707Z,484.00
2018-09-25T14:37:24.704Z,464.00
2018-09-25T14:38:24.679Z,448.00
2018-09-25T14:39:24.675Z,436.00
2018-09-25T14:40:24.654Z,420.00
2018-09-25T14:41:24.655Z,392.00
2018-09-25T14:42:25.527Z,348.00
2018-09-25T14:43:24.620Z,328.00
2018-09-25T14:44:24.666Z,308.00
2018-09-25T14:45:24.597Z,300.00
2018-09-25T14:46:24.594Z,292.00
2018-09-25T14:47:24.577Z,288.00
2018-09-25T14:48:24.568Z,288.00
2018-09-25T14:49:24.552Z,288.00
2018-09-25T14:50:24.544Z,288.00
2018-09-25T14:51:24.607Z,292.00
2018-09-25T14:52:24.518Z,284.00
2018-09-25T14:53:24.507Z,288.00
2018-09-25T14:54:24.555Z,288.00
2018-09-25T14:55:24.500Z,284.00
2018-09-25T14:56:24.496Z,284.00
2018-09-25T14:57:24.457Z,288.00
2018-09-25T14:58:24.452Z,292.00
2018-09-25T14:59:25.044Z,296.00
2018-09-25T15:00:24.424Z,304.00
2018-09-25T15:01:24.428Z,312.00
2018-09-25T15:02:24.405Z,328.00
2018-09-25T15:03:24.393Z,348.00
2018-09-25T15:04:24.382Z,372.00
2018-09-25T15:05:24.373Z,388.00
2018-09-25T15:06:24.378Z,392.00
2018-09-25T15:07:24.435Z,388.00
2018-09-25T15:08:24.334Z,392.00
2018-09-25T15:09:24.326Z,368.00
2018-09-25T15:10:24.312Z,340.00
2018-09-25T15:11:24.310Z,324.00
2018-09-25T15:12:24.295Z,320.00
2018-09-25T15:13:24.320Z,304.00
2018-09-25T15:14:26.765Z,288.00
2018-09-25T15:15:24.258Z,272.00
2018-09-25T15:16:24.791Z,268.00
2018-09-25T15:17:24.707Z,264.00
2018-09-25T15:18:24.225Z,260.00
2018-09-25T15:19:24.213Z,256.00
2018-09-25T15:20:24.713Z,256.00
2018-09-25T15:21:26.831Z,252.00
2018-09-25T15:22:24.833Z,252.00
2018-09-25T15:23:24.163Z,252.00
2018-09-25T15:24:24.150Z,248.00
2018-09-25T15:25:25.271Z,252.00
2018-09-25T15:26:24.137Z,248.00
2018-09-25T15:27:25.431Z,244.00
2018-09-25T15:28:24.107Z,244.00
2018-09-25T15:29:24.096Z,248.00
2018-09-25T15:30:24.180Z,248.00
2018-09-25T15:31:25.789Z,244.00
2018-09-25T15:32:26.718Z,240.00
2018-09-25T15:33:24.104Z,244.00
2018-09-25T15:34:24.693Z,244.00
2018-09-25T15:35:24.910Z,244.00
2018-09-25T15:36:24.025Z,240.00
2018-09-25T15:37:24.009Z,240.00
2018-09-25T15:38:23.994Z,240.00
2018-09-25T15:39:24.067Z,240.00
2018-09-25T15:40:24.172Z,236.00
2018-09-25T15:41:24.012Z,236.00
2018-09-25T15:42:26.748Z,236.00
2018-09-25T15:43:24.006Z,236.00
2018-09-25T15:44:25.532Z,232.00
2018-09-25T15:45:25.474Z,236.00
2018-09-25T15:46:24.003Z,236.00
2018-09-25T15:47:23.892Z,240.00
2018-09-25T15:48:23.881Z,236.00
2018-09-25T15:49:23.938Z,236.00
2018-09-25T15:50:23.855Z,240.00
2018-09-25T15:51:23.855Z,232.00
2018-09-25T15:52:23.836Z,236.00
2018-09-25T15:53:24.520Z,236.00
2018-09-25T15:54:23.812Z,240.00
2018-09-25T15:55:23.797Z,236.00
2018-09-25T15:56:24.496Z,236.00
2018-09-25T15:57:23.775Z,236.00
2018-09-25T15:58:23.763Z,232.00
2018-09-25T15:59:23.754Z,232.00
2018-09-25T16:00:24.893Z,232.00
2018-09-25T16:01:23.763Z,228.00
2018-09-25T16:02:23.719Z,232.00
2018-09-25T16:03:23.709Z,228.00
2018-09-25T16:04:23.693Z,224.00
2018-09-25T16:05:23.683Z,224.00
2018-09-25T16:06:23.662Z,220.00
2018-09-25T16:07:23.689Z,216.00
2018-09-25T16:08:23.650Z,216.00
2018-09-25T16:09:23.639Z,216.00
2018-09-25T16:10:23.628Z,216.00
2018-09-25T16:11:23.616Z,212.00
2018-09-25T16:12:23.612Z,212.00
2018-09-25T16:13:23.593Z,208.00
2018-09-25T16:14:23.569Z,204.00
2018-09-25T16:15:23.568Z,204.00
2018-09-25T16:16:23.560Z,200.00
2018-09-25T16:17:23.577Z,200.00